Time;durP1;ratioP1;P1;durP2;ratioP2;P2;SDS_P1;SDS_P2;PMS_P1;PMS_P2;Temp;Humidity;BMP_temperature;BMP_pressure;BME280_temperature;BME280_humidity;BME280_pressure;Samples;Min_cycle;Max_cycle;Signal;HPM_P1;HPM_P2
2021/10/19 06:02:11;;;;;;;44.35;24.67;;;17.20;99.90;;;;;;6246044;22;20091;-81
2021/10/19 06:04:38;;;;;;;40.03;23.80;;;17.20;99.90;;;;;;6273013;22;20022;-82
2021/10/19 06:07:05;;;;;;;45.97;24.05;;;17.20;99.90;;;;;;6272103;22;20074;-81
2021/10/19 06:09:32;;;;;;;36.38;22.42;;;17.20;99.90;;;;;;6274176;22;20016;-81
2021/10/19 06:12:00;;;;;;;35.47;20.70;;;17.10;99.90;;;;;;6273573;22;20412;-81
2021/10/19 06:14:27;;;;;;;;;;;17.10;99.90;;;;;;6274687;22;20528;-81
2021/10/19 06:16:54;;;;;;;24.10;14.63;;;17.10;99.90;;;;;;6274341;22;19961;-81
2021/10/19 06:19:21;;;;;;;28.48;14.63;;;17.10;99.90;;;;;;6274432;22;20035;-81
2021/10/19 06:21:49;;;;;;;22.05;13.68;;;17.10;99.90;;;;;;6273558;22;20550;-80
2021/10/19 06:24:17;;;;;;;29.88;13.25;;;17.10;99.90;;;;;;6247198;22;20019;-81
2021/10/19 06:26:45;;;;;;;21.63;12.43;;;17.10;99.90;;;;;;6274659;22;20465;-82
2021/10/19 06:29:13;;;;;;;20.83;11.70;;;17.10;99.90;;;;;;6273870;22;20074;-80
2021/10/19 06:31:41;;;;;;;22.45;12.15;;;17.10;99.90;;;;;;6274589;22;20019;-81
2021/10/19 06:34:09;;;;;;;23.27;11.52;;;17.10;99.90;;;;;;6273918;22;20023;-83
2021/10/19 06:36:36;;;;;;;21.25;11.27;;;17.00;99.90;;;;;;6247685;22;20069;-81
2021/10/19 06:39:04;;;;;;;24.90;11.38;;;17.00;99.90;;;;;;6274481;22;20073;-82
2021/10/19 06:41:32;;;;;;;19.90;10.43;;;17.00;99.90;;;;;;6273666;22;20462;-82
2021/10/19 06:43:59;;;;;;;22.38;10.55;;;17.00;99.90;;;;;;6274340;22;20065;-82
2021/10/19 06:46:46;;;;;;;19.05;9.70;;;17.00;99.90;;;;;;6273481;22;20529;-80
2021/10/19 06:49:13;;;;;;;20.95;9.20;;;17.00;99.90;;;;;;6245350;22;20437;-81
2021/10/19 06:51:40;;;;;;;16.75;8.40;;;16.90;99.90;;;;;;6272704;22;20027;-80
2021/10/19 06:54:08;;;;;;;15.75;7.70;;;16.90;99.90;;;;;;6272980;22;20011;-81
2021/10/19 06:56:35;;;;;;;18.05;7.63;;;16.80;99.90;;;;;;6273611;22;20085;-81
2021/10/19 06:59:02;;;;;;;18.30;8.02;;;16.90;99.90;;;;;;6273306;22;20020;-82
2021/10/19 07:01:29;;;;;;;16.00;7.88;;;16.80;99.90;;;;;;6272229;22;20357;-81
2021/10/19 07:03:56;;;;;;;14.55;7.53;;;16.80;99.90;;;;;;6274097;22;20343;-82
2021/10/19 07:06:24;;;;;;;13.43;7.65;;;16.80;99.90;;;;;;6271795;22;20031;-81
2021/10/19 07:08:53;;;;;;;15.77;7.55;;;16.80;99.90;;;;;;6272246;22;20027;-81
2021/10/19 07:11:25;;;;;;;16.30;7.53;;;16.80;99.90;;;;;;6271098;22;20024;-81
2021/10/19 07:13:53;;;;;;;17.25;8.15;;;16.80;99.90;;;;;;6272468;22;20095;-80
2021/10/19 07:16:21;;;;;;;13.80;7.40;;;16.70;99.90;;;;;;6271855;22;20498;-81
2021/10/19 07:18:48;;;;;;;14.32;7.18;;;16.80;99.90;;;;;;6272402;22;20102;-81
2021/10/19 07:21:15;;;;;;;13.48;7.90;;;16.70;99.90;;;;;;6273210;22;20026;-81
2021/10/19 07:23:42;;;;;;;16.38;7.68;;;16.70;99.90;;;;;;6274252;22;20024;-80
2021/10/19 07:26:09;;;;;;;16.50;8.10;;;16.70;99.90;;;;;;6273048;22;20020;-81
2021/10/19 07:28:36;;;;;;;15.95;7.60;;;16.70;99.90;;;;;;6274732;22;20016;-81
2021/10/19 07:31:02;;;;;;;16.40;7.40;;;16.70;99.90;;;;;;6273302;22;20469;-81
2021/10/19 07:33:29;;;;;;;16.67;7.88;;;16.80;99.90;;;;;;6271888;22;20018;-82
2021/10/19 07:35:57;;;;;;;13.60;7.30;;;16.80;99.90;;;;;;6272957;22;20073;-81
2021/10/19 07:38:26;;;;;;;13.18;7.40;;;16.80;99.90;;;;;;6272568;22;20046;-81
2021/10/19 07:40:53;;;;;;;16.15;7.80;;;16.70;99.90;;;;;;6272990;22;20030;-81
2021/10/19 07:43:20;;;;;;;12.90;8.10;;;16.80;99.90;;;;;;6271850;22;20027;-81
2021/10/19 07:45:47;;;;;;;13.65;7.93;;;16.80;99.90;;;;;;6246155;22;20088;-81
2021/10/19 07:48:14;;;;;;;11.65;7.55;;;16.80;99.90;;;;;;6272259;22;20023;-81
2021/10/19 07:50:46;;;;;;;14.65;7.78;;;16.80;99.90;;;;;;6272448;22;20023;-81
2021/10/19 07:53:15;;;;;;;16.80;8.82;;;16.80;99.90;;;;;;6272528;22;20069;-81
2021/10/19 07:55:43;;;;;;;11.48;7.88;;;16.90;99.90;;;;;;6272558;22;20016;-81
2021/10/19 07:58:10;;;;;;;12.88;8.20;;;16.90;99.90;;;;;;6272058;22;20020;-82
2021/10/19 08:00:37;;;;;;;13.60;7.95;;;16.90;99.90;;;;;;6272351;22;20019;-81
2021/10/19 08:03:04;;;;;;;12.88;8.63;;;17.00;99.90;;;;;;6271744;22;20022;-80
2021/10/19 08:05:31;;;;;;;16.73;8.45;;;17.00;99.90;;;;;;6272512;22;20069;-82
2021/10/19 08:08:10;;;;;;;13.10;8.25;;;17.00;99.90;;;;;;6272635;22;20146;-82
2021/10/19 08:10:38;;;;;;;;;;;17.10;99.90;;;;;;6272716;22;20012;-82
2021/10/19 08:13:06;;;;;;;12.68;8.25;;;17.10;99.90;;;;;;6271909;22;19919;-82
2021/10/19 08:15:34;;;;;;;12.00;8.40;;;17.20;99.90;;;;;;6272359;22;20023;-82
2021/10/19 08:18:03;;;;;;;14.10;8.40;;;17.20;99.90;;;;;;6272321;22;20015;-82
2021/10/19 08:20:30;;;;;;;14.95;8.73;;;17.30;99.90;;;;;;6272032;22;20019;-82
2021/10/19 08:22:57;;;;;;;17.48;8.93;;;17.30;99.90;;;;;;6272391;22;20016;-82
2021/10/19 08:25:24;;;;;;;12.05;8.85;;;17.40;99.90;;;;;;6271257;22;20024;-82
2021/10/19 08:27:51;;;;;;;13.18;7.90;;;17.40;99.90;;;;;;6272283;22;20474;-82
2021/10/19 08:30:20;;;;;;;15.02;8.48;;;17.40;99.90;;;;;;6271948;22;20023;-82
2021/10/19 08:32:49;;;;;;;17.73;8.73;;;17.50;99.90;;;;;;6272188;22;20066;-82
2021/10/19 08:35:17;;;;;;;15.02;9.48;;;17.50;99.90;;;;;;6271528;22;20024;-83
2021/10/19 08:37:46;;;;;;;17.15;8.93;;;17.50;99.90;;;;;;6272174;22;20015;-82
2021/10/19 08:40:13;;;;;;;20.15;9.52;;;17.50;99.90;;;;;;6271772;22;20023;-82
2021/10/19 08:42:44;;;;;;;18.48;9.63;;;17.50;99.90;;;;;;6272432;22;20077;-82
2021/10/19 08:45:13;;;;;;;13.68;9.15;;;17.50;99.90;;;;;;6271692;22;20035;-82
2021/10/19 08:47:41;;;;;;;;;;;17.50;99.90;;;;;;6272717;22;20020;-81
2021/10/19 08:50:08;;;;;;;14.80;9.47;;;17.40;99.90;;;;;;6271434;22;19942;-83
2021/10/19 08:52:36;;;;;;;13.63;9.43;;;17.50;99.90;;;;;;6272254;22;20020;-82
2021/10/19 08:55:04;;;;;;;15.57;10.48;;;17.50;99.90;;;;;;6272240;22;20023;-82
2021/10/19 08:57:32;;;;;;;13.43;9.93;;;17.50;99.90;;;;;;6271683;22;20016;-83
2021/10/19 08:59:59;;;;;;;15.95;10.52;;;17.50;99.90;;;;;;6271712;22;20615;-82
2021/10/19 09:02:42;;;;;;;15.95;10.05;;;17.60;99.90;;;;;;6271589;22;20023;-83
2021/10/19 09:05:29;;;;;;;14.38;9.63;;;17.70;99.90;;;;;;6271289;22;20018;-82
2021/10/19 09:07:57;;;;;;;15.85;9.70;;;17.70;99.90;;;;;;6245061;22;20069;-81
2021/10/19 09:10:26;;;;;;;14.90;10.13;;;17.70;99.90;;;;;;6271766;22;20028;-82
2021/10/19 09:12:57;;;;;;;;;;;17.80;99.90;;;;;;6272410;22;20019;-82
2021/10/19 09:15:27;;;;;;;13.80;9.52;;;17.80;99.90;;;;;;6271225;22;22075;-83
2021/10/19 09:17:59;;;;;;;16.25;9.95;;;17.80;99.90;;;;;;6272567;22;20020;-82
2021/10/19 09:20:25;;;;;;;17.85;9.70;;;17.80;99.90;;;;;;6272081;22;20880;-83
2021/10/19 09:22:53;;;;;;;21.88;10.30;;;17.90;99.90;;;;;;6272135;22;20015;-82
2021/10/19 09:25:35;;;;;;;16.27;10.27;;;17.90;99.90;;;;;;6271674;22;20027;-82
2021/10/19 09:28:03;;;;;;;15.32;10.07;;;17.90;99.90;;;;;;6272539;22;20073;-82
2021/10/19 09:30:37;;;;;;;19.10;10.70;;;18.00;99.90;;;;;;6271926;22;20012;-82
2021/10/19 09:33:06;;;;;;;13.75;10.10;;;18.00;99.90;;;;;;6271787;22;20095;-82
2021/10/19 09:35:36;;;;;;;14.25;10.43;;;18.00;99.90;;;;;;6245696;22;20012;-82
2021/10/19 09:38:09;;;;;;;14.60;10.23;;;18.00;99.90;;;;;;6272121;22;20477;-81
2021/10/19 09:40:46;;;;;;;13.05;10.15;;;18.00;99.90;;;;;;6272151;22;20425;-81
2021/10/19 09:43:16;;;;;;;13.70;10.60;;;18.00;99.90;;;;;;6271545;22;20412;-81
2021/10/19 09:45:50;;;;;;;14.60;11.10;;;18.00;99.90;;;;;;6271978;22;20069;-81
2021/10/19 09:48:20;;;;;;;17.60;11.48;;;18.00;99.90;;;;;;6271853;22;20469;-82
2021/10/19 09:50:47;;;;;;;15.38;12.15;;;18.10;99.90;;;;;;6272657;22;20019;-82
2021/10/19 09:53:16;;;;;;;16.02;11.20;;;18.10;99.90;;;;;;6271697;22;20085;-82
2021/10/19 09:55:44;;;;;;;15.05;11.55;;;18.20;99.90;;;;;;6271712;22;20030;-81
2021/10/19 09:58:11;;;;;;;12.27;10.02;;;18.30;99.90;;;;;;6245074;22;20094;-81
2021/10/19 10:00:38;;;;;;;16.65;11.40;;;18.30;99.90;;;;;;6271816;22;20519;-81
2021/10/19 10:03:05;;;;;;;12.82;11.10;;;18.40;99.90;;;;;;6270107;22;20034;-82
2021/10/19 10:05:35;;;;;;;18.95;11.23;;;18.50;99.90;;;;;;6271493;22;20098;-80
2021/10/19 10:08:04;;;;;;;15.00;11.65;;;18.50;99.90;;;;;;6272283;22;20090;-83
2021/10/19 10:10:31;;;;;;;14.50;11.25;;;18.60;99.90;;;;;;6271938;22;20011;-83
2021/10/19 10:12:58;;;;;;;16.67;11.05;;;18.70;99.90;;;;;;6272046;22;20046;-83
2021/10/19 10:15:31;;;;;;;16.75;11.73;;;18.80;99.90;;;;;;6271172;22;20081;-81
2021/10/19 10:18:02;;;;;;;14.15;11.55;;;18.90;99.90;;;;;;6245708;22;20504;-81
2021/10/19 10:20:36;;;;;;;14.77;11.95;;;18.90;99.90;;;;;;6271725;22;20527;-84
2021/10/19 10:23:28;;;;;;;17.70;12.85;;;18.90;99.90;;;;;;6270269;22;20472;-81
2021/10/19 10:25:59;;;;;;;15.80;12.93;;;19.00;99.90;;;;;;6271911;22;20500;-82
2021/10/19 10:28:27;;;;;;;16.52;13.70;;;19.00;99.90;;;;;;6246366;22;20070;-82
2021/10/19 10:30:59;;;;;;;;;;;19.10;99.90;;;;;;6274540;22;20012;-82
2021/10/19 10:33:41;;;;;;;17.42;15.70;;;19.10;99.90;;;;;;6273192;22;19915;-82
2021/10/19 10:36:13;;;;;;;18.38;16.40;;;19.20;99.90;;;;;;6273337;22;20073;-83
2021/10/19 10:38:57;;;;;;;19.40;15.80;;;19.20;99.90;;;;;;6273598;22;20400;-82
2021/10/19 10:41:24;;;;;;;18.13;15.65;;;19.30;99.90;;;;;;6272826;22;20024;-82
2021/10/19 10:44:01;;;;;;;18.35;15.13;;;19.30;99.90;;;;;;6272844;22;20012;-83
2021/10/19 10:46:28;;;;;;;17.98;16.15;;;19.40;99.90;;;;;;6272435;22;20019;-87
2021/10/19 10:48:57;;;;;;;25.27;17.25;;;19.50;99.90;;;;;;6244074;22;20019;-86
2021/10/19 10:51:32;;;;;;;19.90;17.77;;;19.60;99.90;;;;;;6270277;22;20461;-87
2021/10/19 10:54:00;;;;;;;22.45;17.30;;;19.60;99.90;;;;;;6271621;22;20020;-85
2021/10/19 10:56:27;;;;;;;20.05;16.50;;;19.60;99.90;;;;;;6270170;22;20358;-86
2021/10/19 10:58:54;;;;;;;21.58;17.10;;;19.60;99.90;;;;;;6245112;22;20358;-84
2021/10/19 11:01:31;;;;;;;20.02;17.85;;;19.60;99.90;;;;;;6269623;22;20032;-86
2021/10/19 11:04:09;;;;;;;25.17;18.35;;;19.50;99.90;;;;;;6272072;22;20058;-87
2021/10/19 11:06:59;;;;;;;26.23;20.05;;;19.50;99.90;;;;;;6248259;22;20015;-86
2021/10/19 11:09:29;;;;;;;25.00;19.73;;;19.50;99.90;;;;;;6242593;22;20023;-87
2021/10/19 11:11:59;;;;;;;25.33;18.80;;;19.50;99.90;;;;;;6244154;22;20011;-82
2021/10/19 11:14:26;;;;;;;22.08;18.95;;;19.50;99.90;;;;;;6269462;22;20023;-85
2021/10/19 11:16:55;;;;;;;25.83;18.60;;;19.50;99.90;;;;;;6246018;22;20016;-80
2021/10/19 11:19:26;;;;;;;28.10;19.92;;;19.50;99.90;;;;;;6271189;22;20339;-81
2021/10/19 11:21:56;;;;;;;27.33;20.83;;;19.50;99.90;;;;;;6271247;22;20020;-82
2021/10/19 11:24:25;;;;;;;24.35;20.08;;;19.50;99.90;;;;;;6272648;22;20385;-82
2021/10/19 11:26:53;;;;;;;22.33;19.48;;;19.50;99.90;;;;;;6273690;22;20015;-81
2021/10/19 11:29:20;;;;;;;26.30;19.70;;;19.60;99.90;;;;;;6272414;22;20078;-83
2021/10/19 11:31:48;;;;;;;21.98;19.63;;;19.60;99.90;;;;;;6273537;22;20081;-82
2021/10/19 11:34:16;;;;;;;26.73;20.63;;;19.70;99.90;;;;;;6272860;22;20015;-81
2021/10/19 11:36:43;;;;;;;23.33;20.63;;;19.70;99.90;;;;;;6273372;22;20077;-81
2021/10/19 11:39:14;;;;;;;26.38;21.48;;;19.70;99.90;;;;;;6272301;22;20020;-81
2021/10/19 11:41:47;;;;;;;28.88;23.42;;;19.60;99.90;;;;;;6272407;22;20542;-81
2021/10/19 11:44:14;;;;;;;32.20;21.77;;;19.60;99.90;;;;;;6273042;22;20342;-81
2021/10/19 11:46:41;;;;;;;26.73;21.88;;;19.60;99.90;;;;;;6273078;22;20016;-82
2021/10/19 11:49:13;;;;;;;33.90;20.98;;;19.60;99.90;;;;;;6272889;22;20042;-83
2021/10/19 11:51:45;;;;;;;26.08;21.60;;;19.60;99.90;;;;;;6273113;22;20027;-82
2021/10/19 11:54:14;;;;;;;33.20;21.95;;;19.60;99.90;;;;;;6272688;22;20019;-81
2021/10/19 11:57:02;;;;;;;26.60;21.83;;;19.60;99.90;;;;;;6246310;22;20070;-81
2021/10/19 11:59:49;;;;;;;31.75;23.42;;;19.60;99.90;;;;;;6272733;22;20070;-82
2021/10/19 12:02:17;;;;;;;33.30;23.10;;;19.60;99.90;;;;;;6268608;22;20020;-81
2021/10/19 12:04:46;;;;;;;32.83;23.02;;;19.60;99.90;;;;;;6272587;22;20039;-81
2021/10/19 12:07:26;;;;;;;28.30;22.55;;;19.70;99.90;;;;;;6271985;22;20024;-81
2021/10/19 12:09:53;;;;;;;30.67;22.02;;;19.60;99.90;;;;;;6272615;22;20022;-81
2021/10/19 12:12:25;;;;;;;26.80;22.35;;;19.60;99.90;;;;;;6272756;22;20032;-82
2021/10/19 12:14:55;;;;;;;27.38;21.70;;;19.60;99.90;;;;;;6245890;22;20014;-82
2021/10/19 12:17:22;;;;;;;24.92;20.55;;;19.60;99.90;;;;;;6244990;22;20031;-82
2021/10/19 12:20:06;;;;;;;31.30;22.90;;;19.60;99.90;;;;;;6272112;22;20022;-84
2021/10/19 12:23:00;;;;;;;26.08;22.40;;;19.60;99.90;;;;;;6272425;22;20027;-82
2021/10/19 12:25:34;;;;;;;27.60;22.20;;;19.70;99.90;;;;;;6272064;22;20016;-82
2021/10/19 12:28:01;;;;;;;27.65;22.33;;;19.80;99.90;;;;;;6245939;22;20015;-83
2021/10/19 12:30:49;;;;;;;24.52;21.15;;;19.80;99.90;;;;;;6272391;22;20019;-83
2021/10/19 12:33:20;;;;;;;28.55;21.52;;;19.80;99.90;;;;;;6272183;22;20077;-83
2021/10/19 12:36:11;;;;;;;30.80;21.63;;;19.80;99.90;;;;;;6272773;22;20015;-83
2021/10/19 12:38:44;;;;;;;26.10;21.63;;;19.80;99.90;;;;;;6271823;22;20066;-83
2021/10/19 12:41:14;;;;;;;37.28;22.98;;;19.80;99.90;;;;;;6271928;22;20023;-84
2021/10/19 12:43:47;;;;;;;31.38;21.73;;;19.80;99.90;;;;;;6272434;22;20027;-82
2021/10/19 12:46:17;;;;;;;29.88;21.55;;;19.80;99.90;;;;;;6245883;22;20039;-83
2021/10/19 12:48:45;;;;;;;28.67;21.58;;;19.80;99.90;;;;;;6272087;22;20024;-83
2021/10/19 12:51:17;;;;;;;31.70;22.25;;;19.80;99.90;;;;;;6271443;22;20024;-83
2021/10/19 12:53:49;;;;;;;29.27;22.23;;;19.80;99.90;;;;;;6272351;22;20020;-82
2021/10/19 12:56:21;;;;;;;30.13;22.67;;;19.90;99.90;;;;;;6271184;22;20023;-83
2021/10/19 12:58:48;;;;;;;29.50;21.98;;;19.80;99.90;;;;;;6272314;22;20024;-83
2021/10/19 13:01:15;;;;;;;30.92;23.30;;;19.80;99.90;;;;;;6264845;22;20054;-82
2021/10/19 13:03:42;;;;;;;36.28;23.67;;;19.80;99.90;;;;;;6241346;22;20019;-83
2021/10/19 13:06:10;;;;;;;33.75;24.98;;;19.80;99.90;;;;;;6240226;22;20016;-82
2021/10/19 13:08:37;;;;;;;35.60;25.25;;;19.80;99.90;;;;;;6241414;22;20016;-82
2021/10/19 13:11:05;;;;;;;31.45;24.80;;;19.70;99.90;;;;;;6241250;22;20074;-83
2021/10/19 13:13:33;;;;;;;37.40;25.77;;;19.80;99.90;;;;;;6215208;23;20015;-83
2021/10/19 13:16:01;;;;;;;43.47;26.08;;;19.80;99.90;;;;;;6242029;22;20040;-83
2021/10/19 13:18:29;;;;;;;38.80;26.77;;;19.80;99.90;;;;;;6241038;22;20042;-82
2021/10/19 13:20:56;;;;;;;30.73;26.20;;;19.70;99.90;;;;;;6242328;22;20046;-82
2021/10/19 13:23:23;;;;;;;35.67;27.70;;;19.70;99.90;;;;;;6240645;22;20024;-83
2021/10/19 13:25:51;;;;;;;34.35;27.80;;;19.70;99.90;;;;;;6241912;22;20090;-83
2021/10/19 13:28:18;;;;;;;34.33;28.23;;;19.70;99.90;;;;;;6241146;22;20404;-82
2021/10/19 13:30:46;;;;;;;37.42;28.75;;;19.70;99.90;;;;;;6241647;22;20103;-83
2021/10/19 13:33:14;;;;;;;39.60;29.25;;;19.70;99.90;;;;;;6241043;22;20031;-82
2021/10/19 13:35:41;;;;;;;38.80;27.70;;;19.80;99.90;;;;;;6241560;22;20046;-83
2021/10/19 13:38:09;;;;;;;34.50;27.63;;;19.70;99.90;;;;;;6240896;22;20086;-82
2021/10/19 13:40:36;;;;;;;37.70;27.95;;;19.70;99.90;;;;;;6215290;23;20012;-83
2021/10/19 13:43:03;;;;;;;43.00;27.90;;;19.70;99.90;;;;;;6241446;22;20024;-83
2021/10/19 13:45:30;;;;;;;39.95;28.23;;;19.70;99.90;;;;;;6240621;22;20016;-84
2021/10/19 13:47:57;;;;;;;38.65;27.92;;;19.70;99.90;;;;;;6215530;23;20414;-83
2021/10/19 13:50:24;;;;;;;36.03;27.83;;;19.80;99.90;;;;;;6214291;22;20024;-82
2021/10/19 13:52:51;;;;;;;40.90;27.95;;;19.80;99.90;;;;;;6241415;22;20012;-84
2021/10/19 13:55:18;;;;;;;39.38;28.58;;;19.80;99.90;;;;;;6241452;22;20076;-83
2021/10/19 13:57:45;;;;;;;34.72;26.35;;;19.90;99.90;;;;;;6241817;22;20073;-83
2021/10/19 14:00:15;;;;;;;37.00;26.27;;;19.90;99.90;;;;;;6240736;22;20028;-83
2021/10/19 14:02:42;;;;;;;34.20;26.30;;;19.90;99.90;;;;;;6270670;22;20020;-83
2021/10/19 14:05:10;;;;;;;37.15;26.13;;;20.00;99.90;;;;;;6272925;22;20085;-83
2021/10/19 14:07:37;;;;;;;33.05;25.20;;;20.00;99.90;;;;;;6274448;22;20020;-83
2021/10/19 14:10:06;;;;;;;33.25;24.73;;;20.00;99.90;;;;;;6247362;22;20069;-85
2021/10/19 14:12:34;;;;;;;39.00;25.02;;;20.00;99.90;;;;;;6272861;22;20049;-82
2021/10/19 14:15:02;;;;;;;34.60;25.75;;;20.10;99.90;;;;;;6272684;22;20019;-82
2021/10/19 14:17:29;;;;;;;33.97;25.02;;;20.10;99.90;;;;;;6246978;22;20474;-83
2021/10/19 14:19:56;;;;;;;33.88;24.88;;;20.10;99.90;;;;;;6273466;22;20531;-83
2021/10/19 14:22:24;;;;;;;32.45;24.50;;;20.10;99.90;;;;;;6273270;22;20197;-82
2021/10/19 14:24:51;;;;;;;36.92;25.23;;;20.10;99.90;;;;;;6273391;22;20020;-83
2021/10/19 14:27:18;;;;;;;36.55;25.50;;;20.10;99.90;;;;;;6272814;22;20020;-83
2021/10/19 14:29:45;;;;;;;32.05;23.98;;;20.10;99.90;;;;;;6246377;22;20020;-83
2021/10/19 14:32:13;;;;;;;32.50;24.45;;;20.10;99.90;;;;;;6272978;22;20020;-83
2021/10/19 14:34:40;;;;;;;33.47;24.50;;;20.10;99.90;;;;;;6273196;22;20019;-83
2021/10/19 14:37:07;;;;;;;39.15;24.98;;;20.10;99.90;;;;;;6273344;22;20020;-84
2021/10/19 14:39:35;;;;;;;31.27;24.67;;;20.10;99.90;;;;;;6273191;22;20024;-83
2021/10/19 14:42:03;;;;;;;34.97;24.88;;;20.10;99.90;;;;;;6273620;22;20561;-85
2021/10/19 14:44:30;;;;;;;32.92;24.63;;;20.00;99.90;;;;;;6273232;22;20023;-83
2021/10/19 14:46:57;;;;;;;32.45;24.85;;;20.00;99.90;;;;;;6273785;22;20497;-83
2021/10/19 14:49:25;;;;;;;35.05;25.20;;;19.90;99.90;;;;;;6272695;22;20020;-83
2021/10/19 14:51:54;;;;;;;35.33;24.60;;;19.90;99.90;;;;;;6273273;22;20016;-84
2021/10/19 14:54:21;;;;;;;33.72;24.77;;;19.90;99.90;;;;;;6272638;22;20489;-83
2021/10/19 14:56:48;;;;;;;28.42;24.10;;;19.80;99.90;;;;;;6273435;22;20065;-82
2021/10/19 14:59:15;;;;;;;31.45;23.52;;;19.80;99.90;;;;;;6272268;22;20073;-84
2021/10/19 15:01:41;;;;;;;30.48;23.45;;;19.80;99.90;;;;;;6273005;22;20049;-83
2021/10/19 15:04:08;;;;;;;31.98;24.20;;;19.80;99.90;;;;;;6273042;22;20458;-84
2021/10/19 15:06:35;;;;;;;32.20;23.58;;;19.80;99.90;;;;;;6273826;22;20473;-84
2021/10/19 15:09:02;;;;;;;36.80;23.50;;;19.80;99.90;;;;;;6273611;22;20074;-85
2021/10/19 15:11:29;;;;;;;31.27;23.00;;;19.70;99.90;;;;;;6246092;22;20042;-84
2021/10/19 15:13:56;;;;;;;29.77;23.00;;;19.70;99.90;;;;;;6273353;22;20019;-82
2021/10/19 15:16:25;;;;;;;32.38;22.50;;;19.70;99.90;;;;;;6273079;22;20070;-89
2021/10/19 15:18:52;;;;;;;27.58;21.42;;;19.70;99.90;;;;;;6246180;22;20115;-85
2021/10/19 15:21:20;;;;;;;32.55;22.63;;;19.60;99.90;;;;;;6272009;22;20047;-82
2021/10/19 15:23:48;;;;;;;31.92;22.35;;;19.60;99.90;;;;;;6273544;22;20024;-83
2021/10/19 15:26:16;;;;;;;30.33;22.08;;;19.50;99.90;;;;;;6272327;22;20457;-84
2021/10/19 15:28:44;;;;;;;29.70;21.67;;;19.40;99.90;;;;;;6272420;22;20087;-83
2021/10/19 15:31:11;;;;;;;29.47;21.13;;;19.40;99.90;;;;;;6271403;22;20028;-83
2021/10/19 15:33:38;;;;;;;27.40;21.67;;;19.30;99.90;;;;;;6271494;22;20755;-81
2021/10/19 15:36:08;;;;;;;35.65;20.63;;;19.30;99.90;;;;;;6272279;22;20015;-83
2021/10/19 15:38:36;;;;;;;27.90;20.42;;;19.30;99.90;;;;;;6245495;22;20077;-84
2021/10/19 15:41:10;;;;;;;24.33;20.02;;;19.20;99.90;;;;;;6245193;22;20046;-84
2021/10/19 15:43:37;;;;;;;24.67;19.70;;;19.20;99.90;;;;;;6271868;22;20023;-83
2021/10/19 15:46:04;;;;;;;30.70;20.77;;;19.10;99.90;;;;;;6271127;22;20039;-85
2021/10/19 15:48:34;;;;;;;27.53;20.20;;;19.10;99.90;;;;;;6245737;22;20023;-84
2021/10/19 15:51:01;;;;;;;29.13;20.42;;;19.00;99.90;;;;;;6272533;22;20085;-82
2021/10/19 15:53:28;;;;;;;27.13;20.60;;;19.00;99.90;;;;;;6271837;22;20016;-83
2021/10/19 15:55:55;;;;;;;29.85;19.55;;;18.90;99.90;;;;;;6272521;22;20015;-83
2021/10/19 15:58:22;;;;;;;27.42;19.77;;;18.90;99.90;;;;;;6244851;22;20028;-84
2021/10/19 16:00:48;;;;;;;27.85;20.25;;;18.80;99.90;;;;;;6272235;22;20016;-83
2021/10/19 16:03:15;;;;;;;26.83;19.85;;;18.80;99.90;;;;;;6271622;22;20024;-83
2021/10/19 16:05:45;;;;;;;31.13;19.83;;;18.70;99.90;;;;;;6271587;22;20019;-83
2021/10/19 16:08:12;;;;;;;25.77;20.55;;;18.70;99.90;;;;;;6257026;22;20019;-84
2021/10/19 16:10:39;;;;;;;34.10;21.40;;;18.60;99.90;;;;;;6270319;22;20008;-85
2021/10/19 16:13:06;;;;;;;28.90;20.17;;;18.60;99.90;;;;;;6244474;22;20099;-83
2021/10/19 16:15:33;;;;;;;28.98;20.92;;;18.60;99.90;;;;;;6271720;22;20323;-83
2021/10/19 16:18:00;;;;;;;34.90;22.38;;;18.60;99.90;;;;;;6272885;22;20408;-82
2021/10/19 16:20:27;;;;;;;29.67;21.88;;;18.60;99.90;;;;;;6271606;22;20015;-83
2021/10/19 16:22:54;;;;;;;33.30;22.33;;;18.50;99.90;;;;;;6244855;22;20015;-82
2021/10/19 16:25:21;;;;;;;30.55;21.17;;;18.50;99.90;;;;;;6270704;22;20109;-84
2021/10/19 16:27:48;;;;;;;29.23;21.92;;;18.50;99.90;;;;;;6269906;22;20040;-83
2021/10/19 16:30:15;;;;;;;32.33;20.00;;;18.50;99.90;;;;;;6271307;22;20544;-81
2021/10/19 16:32:42;;;;;;;25.13;20.67;;;18.40;99.90;;;;;;6272335;22;20019;-81
2021/10/19 16:35:10;;;;;;;23.45;19.33;;;18.40;99.90;;;;;;6245017;22;20095;-83
2021/10/19 16:37:38;;;;;;;29.53;20.33;;;18.40;99.90;;;;;;6272263;22;20023;-82
2021/10/19 16:40:06;;;;;;;27.98;20.85;;;18.30;99.90;;;;;;6271633;22;20015;-83
2021/10/19 16:42:33;;;;;;;27.50;21.02;;;18.30;99.90;;;;;;6272429;22;20089;-82
2021/10/19 16:45:00;;;;;;;34.13;21.52;;;18.20;99.90;;;;;;6270901;22;20482;-83
2021/10/19 16:47:28;;;;;;;34.47;20.67;;;18.20;99.90;;;;;;6270768;22;20027;-82
2021/10/19 16:49:56;;;;;;;29.93;19.83;;;18.10;99.90;;;;;;6272451;22;20016;-82
2021/10/19 16:52:23;;;;;;;27.42;21.23;;;18.10;99.90;;;;;;6223051;22;20547;-84
2021/10/19 16:54:52;;;;;;;31.88;21.48;;;18.10;99.90;;;;;;6264419;22;20470;-84
2021/10/19 16:57:19;;;;;;;26.58;20.77;;;18.00;99.90;;;;;;6264994;22;20023;-83
2021/10/19 16:59:48;;;;;;;34.75;21.92;;;18.00;99.90;;;;;;6238569;22;20024;-83
2021/10/19 17:02:16;;;;;;;27.75;21.30;;;17.90;99.90;;;;;;6258514;22;20421;-80
2021/10/19 17:04:43;;;;;;;34.05;21.25;;;17.90;99.90;;;;;;6214490;22;20043;-81
2021/10/19 17:07:10;;;;;;;35.13;22.15;;;17.90;99.90;;;;;;6237860;22;20106;-82
2021/10/19 17:09:38;;;;;;;29.38;21.73;;;17.80;99.90;;;;;;6266076;22;20016;-82
2021/10/19 17:12:05;;;;;;;30.67;22.08;;;17.80;99.90;;;;;;6239064;22;20097;-82
2021/10/19 17:14:33;;;;;;;35.50;21.13;;;17.70;99.90;;;;;;6238959;22;20020;-82
2021/10/19 17:17:02;;;;;;;31.63;20.50;;;17.70;99.90;;;;;;6266597;22;20035;-82
2021/10/19 17:19:30;;;;;;;33.97;22.20;;;17.70;99.90;;;;;;6238897;22;20015;-84
2021/10/19 17:21:58;;;;;;;29.40;22.00;;;17.70;99.90;;;;;;6238703;22;20024;-83
2021/10/19 17:24:25;;;;;;;30.70;21.70;;;17.60;99.90;;;;;;6263672;22;20028;-82
2021/10/19 17:26:53;;;;;;;35.80;22.52;;;17.60;99.90;;;;;;6238113;22;20259;-82
2021/10/19 17:29:21;;;;;;;35.20;22.10;;;17.50;99.90;;;;;;6264078;22;20026;-82
2021/10/19 17:31:49;;;;;;;38.95;24.42;;;17.50;99.90;;;;;;6237674;22;20122;-83
2021/10/19 17:34:17;;;;;;;37.00;23.02;;;17.50;99.90;;;;;;6263186;22;20012;-82
2021/10/19 17:36:44;;;;;;;34.47;22.33;;;17.50;99.90;;;;;;6238851;22;20094;-82
2021/10/19 17:39:15;;;;;;;31.83;21.42;;;17.40;99.90;;;;;;6239119;22;20023;-82
2021/10/19 17:41:42;;;;;;;34.97;23.70;;;17.40;99.90;;;;;;6240374;22;20024;-82
2021/10/19 17:44:13;;;;;;;31.77;21.53;;;17.40;99.90;;;;;;6239049;22;20020;-82
2021/10/19 17:46:40;;;;;;;32.90;21.65;;;17.40;99.90;;;;;;6267529;22;20019;-81
2021/10/19 17:49:07;;;;;;;34.13;22.88;;;17.40;99.90;;;;;;6237797;22;20039;-81
2021/10/19 17:51:34;;;;;;;40.45;23.42;;;17.40;99.90;;;;;;6238504;22;20102;-82
2021/10/19 17:54:07;;;;;;;36.25;22.83;;;17.40;99.90;;;;;;6265412;22;20020;-81
2021/10/19 17:56:36;;;;;;;35.55;23.50;;;17.30;99.90;;;;;;6218697;22;20012;-81
2021/10/19 17:59:05;;;;;;;31.85;21.98;;;17.30;99.90;;;;;;6264491;22;20019;-79
2021/10/19 18:01:48;;;;;;;36.35;22.75;;;17.30;99.90;;;;;;6215901;23;20406;-80
2021/10/19 18:04:38;;;;;;;36.50;22.83;;;17.30;99.90;;;;;;6236428;22;20081;-81
2021/10/19 18:07:05;;;;;;;36.22;23.95;;;17.20;99.90;;;;;;6229197;22;20549;-81
2021/10/19 18:09:33;;;;;;;38.53;23.92;;;17.20;99.90;;;;;;6236079;22;20087;-81
2021/10/19 18:12:03;;;;;;;35.92;22.50;;;17.20;99.90;;;;;;6224029;22;20484;-81
2021/10/19 18:14:40;;;;;;;32.08;21.92;;;17.20;99.90;;;;;;6235445;23;20024;-82
2021/10/19 18:17:07;;;;;;;30.63;22.02;;;17.10;99.90;;;;;;6231704;22;20121;-81
2021/10/19 18:19:34;;;;;;;33.20;22.33;;;17.10;99.90;;;;;;6259908;22;20501;-81
2021/10/19 18:22:02;;;;;;;32.50;20.48;;;17.10;99.90;;;;;;6233787;23;20447;-82
2021/10/19 18:24:32;;;;;;;32.80;21.05;;;17.10;99.90;;;;;;6235300;22;20024;-81
2021/10/19 18:27:02;;;;;;;33.45;20.95;;;17.10;99.90;;;;;;6259457;22;20031;-83
2021/10/19 18:29:29;;;;;;;35.60;22.23;;;17.00;99.90;;;;;;6235236;22;20023;-80
2021/10/19 18:31:56;;;;;;;30.40;21.00;;;17.00;99.90;;;;;;6235276;22;20078;-82
2021/10/19 18:34:25;;;;;;;32.03;20.92;;;17.00;99.90;;;;;;6233844;22;20127;-81
2021/10/19 18:36:53;;;;;;;32.50;21.52;;;17.00;99.90;;;;;;6236748;22;20394;-82
2021/10/19 18:39:20;;;;;;;28.35;21.35;;;17.00;99.90;;;;;;6259634;22;20482;-82
2021/10/19 18:41:48;;;;;;;28.30;20.30;;;17.00;99.90;;;;;;6235866;23;20024;-82